sensor_id;sensor_type;location;lat;lon;timestamp;temperature;humidity
67131;HTU21D;54051;53.464;49.532;2023-03-15T00:02:12;1.48;64.94
67131;HTU21D;54051;53.464;49.532;2023-03-15T00:04:45;1.52;65.00
67131;HTU21D;54051;53.464;49.532;2023-03-15T00:07:16;1.49;65.07
67131;HTU21D;54051;53.464;49.532;2023-03-15T00:09:47;1.41;65.23
67131;HTU21D;54051;53.464;49.532;2023-03-15T00:12:19;1.45;65.08
67131;HTU21D;54051;53.464;49.532;2023-03-15T00:14:57;1.47;65.05
67131;HTU21D;54051;53.464;49.532;2023-03-15T00:17:31;1.40;65.08
67131;HTU21D;54051;53.464;49.532;2023-03-15T00:20:06;1.39;65.46
67131;HTU21D;54051;53.464;49.532;2023-03-15T00:22:38;1.38;65.50
67131;HTU21D;54051;53.464;49.532;2023-03-15T00:25:14;1.41;65.25
67131;HTU21D;54051;53.464;49.532;2023-03-15T00:27:43;1.40;65.32
67131;HTU21D;54051;53.464;49.532;2023-03-15T00:30:13;1.34;65.56
67131;HTU21D;54051;53.464;49.532;2023-03-15T00:32:41;1.33;65.01
67131;HTU21D;54051;53.464;49.532;2023-03-15T00:35:12;1.29;65.32
67131;HTU21D;54051;53.464;49.532;2023-03-15T00:37:44;1.34;65.12
67131;HTU21D;54051;53.464;49.532;2023-03-15T00:40:15;1.35;65.36
67131;HTU21D;54051;53.464;49.532;2023-03-15T00:42:46;1.28;65.22
67131;HTU21D;54051;53.464;49.532;2023-03-15T00:45:21;1.28;65.40
67131;HTU21D;54051;53.464;49.532;2023-03-15T00:47:53;1.31;65.30
67131;HTU21D;54051;53.464;49.532;2023-03-15T00:50:24;1.35;64.87
67131;HTU21D;54051;53.464;49.532;2023-03-15T00:52:56;1.32;65.41
67131;HTU21D;54051;53.464;49.532;2023-03-15T00:55:22;1.35;65.35
67131;HTU21D;54051;53.464;49.532;2023-03-15T00:57:48;1.35;64.91
67131;HTU21D;54051;53.464;49.532;2023-03-15T01:00:22;1.35;65.14
67131;HTU21D;54051;53.464;49.532;2023-03-15T01:02:53;1.38;65.10
67131;HTU21D;54051;53.464;49.532;2023-03-15T01:05:19;1.35;65.05
67131;HTU21D;54051;53.464;49.532;2023-03-15T01:07:46;1.36;65.11
67131;HTU21D;54051;53.464;49.532;2023-03-15T01:10:13;1.41;64.63
67131;HTU21D;54051;53.464;49.532;2023-03-15T01:12:39;1.39;65.07
67131;HTU21D;54051;53.464;49.532;2023-03-15T01:15:06;1.41;64.19
67131;HTU21D;54051;53.464;49.532;2023-03-15T01:17:33;1.41;64.71
67131;HTU21D;54051;53.464;49.532;2023-03-15T01:19:59;1.36;65.14
67131;HTU21D;54051;53.464;49.532;2023-03-15T01:22:25;1.29;65.08
67131;HTU21D;54051;53.464;49.532;2023-03-15T01:24:51;1.38;63.82
67131;HTU21D;54051;53.464;49.532;2023-03-15T01:27:17;1.39;64.32
67131;HTU21D;54051;53.464;49.532;2023-03-15T01:29:43;1.43;64.00
67131;HTU21D;54051;53.464;49.532;2023-03-15T01:32:09;1.39;64.11
67131;HTU21D;54051;53.464;49.532;2023-03-15T01:34:35;1.38;64.10
67131;HTU21D;54051;53.464;49.532;2023-03-15T01:37:01;1.38;64.27
67131;HTU21D;54051;53.464;49.532;2023-03-15T01:39:28;1.36;64.80
67131;HTU21D;54051;53.464;49.532;2023-03-15T01:41:55;1.34;64.74
67131;HTU21D;54051;53.464;49.532;2023-03-15T01:44:21;1.29;64.70
67131;HTU21D;54051;53.464;49.532;2023-03-15T01:46:48;1.28;65.30
67131;HTU21D;54051;53.464;49.532;2023-03-15T01:49:31;1.20;65.26
67131;HTU21D;54051;53.464;49.532;2023-03-15T01:52:25;1.19;65.36
67131;HTU21D;54051;53.464;49.532;2023-03-15T01:55:05;1.13;65.63
67131;HTU21D;54051;53.464;49.532;2023-03-15T01:57:36;1.16;65.44
67131;HTU21D;54051;53.464;49.532;2023-03-15T02:00:07;1.17;65.01
67131;HTU21D;54051;53.464;49.532;2023-03-15T02:02:53;1.17;64.88
67131;HTU21D;54051;53.464;49.532;2023-03-15T02:05:24;1.14;65.07
67131;HTU21D;54051;53.464;49.532;2023-03-15T02:07:50;1.12;64.43
67131;HTU21D;54051;53.464;49.532;2023-03-15T02:10:42;1.13;64.31
67131;HTU21D;54051;53.464;49.532;2023-03-15T02:13:10;1.20;63.68
67131;HTU21D;54051;53.464;49.532;2023-03-15T02:15:37;1.26;63.80
67131;HTU21D;54051;53.464;49.532;2023-03-15T02:18:03;1.26;63.48
67131;HTU21D;54051;53.464;49.532;2023-03-15T02:20:57;1.35;62.73
67131;HTU21D;54051;53.464;49.532;2023-03-15T02:23:26;1.37;62.95
67131;HTU21D;54051;53.464;49.532;2023-03-15T02:26:16;1.32;62.98
67131;HTU21D;54051;53.464;49.532;2023-03-15T02:28:45;1.35;62.53
67131;HTU21D;54051;53.464;49.532;2023-03-15T02:31:12;1.36;62.89
67131;HTU21D;54051;53.464;49.532;2023-03-15T02:33:42;1.34;62.69
67131;HTU21D;54051;53.464;49.532;2023-03-15T02:36:25;1.28;63.58
67131;HTU21D;54051;53.464;49.532;2023-03-15T02:38:52;1.26;62.83
67131;HTU21D;54051;53.464;49.532;2023-03-15T02:41:27;1.32;62.84
67131;HTU21D;54051;53.464;49.532;2023-03-15T02:44:06;1.32;63.07
67131;HTU21D;54051;53.464;49.532;2023-03-15T02:46:34;1.27;63.27
67131;HTU21D;54051;53.464;49.532;2023-03-15T02:49:00;1.27;63.01
67131;HTU21D;54051;53.464;49.532;2023-03-15T02:51:28;1.29;62.28
67131;HTU21D;54051;53.464;49.532;2023-03-15T02:53:54;1.39;61.91
67131;HTU21D;54051;53.464;49.532;2023-03-15T02:56:21;1.36;62.28
67131;HTU21D;54051;53.464;49.532;2023-03-15T02:58:47;1.26;63.12
67131;HTU21D;54051;53.464;49.532;2023-03-15T03:01:14;1.22;63.01
67131;HTU21D;54051;53.464;49.532;2023-03-15T03:03:43;1.32;63.06
67131;HTU21D;54051;53.464;49.532;2023-03-15T03:06:13;1.29;62.50
67131;HTU21D;54051;53.464;49.532;2023-03-15T03:08:39;1.32;62.66
67131;HTU21D;54051;53.464;49.532;2023-03-15T03:11:06;1.29;63.06
67131;HTU21D;54051;53.464;49.532;2023-03-15T03:13:32;1.32;63.08
67131;HTU21D;54051;53.464;49.532;2023-03-15T03:15:58;1.31;63.06
67131;HTU21D;54051;53.464;49.532;2023-03-15T03:18:26;1.27;63.59
67131;HTU21D;54051;53.464;49.532;2023-03-15T03:20:57;1.28;63.08
67131;HTU21D;54051;53.464;49.532;2023-03-15T03:23:25;1.32;62.92
67131;HTU21D;54051;53.464;49.532;2023-03-15T03:25:52;1.39;62.84
67131;HTU21D;54051;53.464;49.532;2023-03-15T03:28:26;1.41;62.95
67131;HTU21D;54051;53.464;49.532;2023-03-15T03:30:54;1.43;62.92
67131;HTU21D;54051;53.464;49.532;2023-03-15T03:33:21;1.46;63.04
67131;HTU21D;54051;53.464;49.532;2023-03-15T03:35:48;1.42;63.38
67131;HTU21D;54051;53.464;49.532;2023-03-15T03:38:15;1.41;62.86
67131;HTU21D;54051;53.464;49.532;2023-03-15T03:40:41;1.54;62.61
67131;HTU21D;54051;53.464;49.532;2023-03-15T03:43:08;1.57;62.52
67131;HTU21D;54051;53.464;49.532;2023-03-15T03:45:34;1.63;62.86
67131;HTU21D;54051;53.464;49.532;2023-03-15T03:48:00;1.68;62.15
67131;HTU21D;54051;53.464;49.532;2023-03-15T03:50:27;1.76;61.89
67131;HTU21D;54051;53.464;49.532;2023-03-15T03:52:53;1.79;61.88
67131;HTU21D;54051;53.464;49.532;2023-03-15T03:55:20;1.82;61.55
67131;HTU21D;54051;53.464;49.532;2023-03-15T03:57:50;1.92;61.12
67131;HTU21D;54051;53.464;49.532;2023-03-15T04:00:18;2.02;60.70
67131;HTU21D;54051;53.464;49.532;2023-03-15T04:02:44;2.14;60.29
67131;HTU21D;54051;53.464;49.532;2023-03-15T04:05:11;2.24;60.23
67131;HTU21D;54051;53.464;49.532;2023-03-15T04:07:37;2.36;59.96
67131;HTU21D;54051;53.464;49.532;2023-03-15T04:10:04;2.43;59.69
67131;HTU21D;54051;53.464;49.532;2023-03-15T04:12:31;2.56;59.25
67131;HTU21D;54051;53.464;49.532;2023-03-15T04:14:57;2.76;59.07
67131;HTU21D;54051;53.464;49.532;2023-03-15T04:17:23;2.83;58.45
67131;HTU21D;54051;53.464;49.532;2023-03-15T04:19:49;2.88;58.58
67131;HTU21D;54051;53.464;49.532;2023-03-15T04:22:16;2.81;58.93
67131;HTU21D;54051;53.464;49.532;2023-03-15T04:24:42;2.81;58.05
67131;HTU21D;54051;53.464;49.532;2023-03-15T04:27:10;2.82;58.31
67131;HTU21D;54051;53.464;49.532;2023-03-15T04:29:41;2.89;58.61
67131;HTU21D;54051;53.464;49.532;2023-03-15T04:32:09;2.96;58.00
67131;HTU21D;54051;53.464;49.532;2023-03-15T04:34:35;3.10;58.44
67131;HTU21D;54051;53.464;49.532;2023-03-15T04:37:05;3.34;57.44
67131;HTU21D;54051;53.464;49.532;2023-03-15T04:39:31;3.55;55.81
67131;HTU21D;54051;53.464;49.532;2023-03-15T04:41:57;3.41;56.48
67131;HTU21D;54051;53.464;49.532;2023-03-15T04:44:23;3.42;56.86
67131;HTU21D;54051;53.464;49.532;2023-03-15T04:46:53;3.84;55.70
67131;HTU21D;54051;53.464;49.532;2023-03-15T04:49:20;7.94;43.98
67131;HTU21D;54051;53.464;49.532;2023-03-15T04:51:46;10.41;36.50
67131;HTU21D;54051;53.464;49.532;2023-03-15T04:54:12;11.02;35.11
67131;HTU21D;54051;53.464;49.532;2023-03-15T04:56:38;11.87;33.99
67131;HTU21D;54051;53.464;49.532;2023-03-15T04:59:07;12.30;32.56
67131;HTU21D;54051;53.464;49.532;2023-03-15T05:01:33;11.13;34.71
67131;HTU21D;54051;53.464;49.532;2023-03-15T05:03:59;9.82;37.37
67131;HTU21D;54051;53.464;49.532;2023-03-15T05:06:27;9.45;38.34
67131;HTU21D;54051;53.464;49.532;2023-03-15T05:08:53;7.25;44.03
67131;HTU21D;54051;53.464;49.532;2023-03-15T05:11:20;6.00;48.44
67131;HTU21D;54051;53.464;49.532;2023-03-15T05:13:46;5.59;49.18
67131;HTU21D;54051;53.464;49.532;2023-03-15T05:16:13;5.28;50.75
67131;HTU21D;54051;53.464;49.532;2023-03-15T05:18:39;5.27;49.75
67131;HTU21D;54051;53.464;49.532;2023-03-15T05:21:06;6.02;48.10
67131;HTU21D;54051;53.464;49.532;2023-03-15T05:23:38;6.94;45.99
67131;HTU21D;54051;53.464;49.532;2023-03-15T05:26:04;8.20;42.19
67131;HTU21D;54051;53.464;49.532;2023-03-15T05:28:30;7.74;43.34
67131;HTU21D;54051;53.464;49.532;2023-03-15T05:30:57;7.41;44.37
67131;HTU21D;54051;53.464;49.532;2023-03-15T05:33:23;7.24;44.83
67131;HTU21D;54051;53.464;49.532;2023-03-15T05:35:49;7.58;44.42
67131;HTU21D;54051;53.464;49.532;2023-03-15T05:38:18;7.86;44.19
67131;HTU21D;54051;53.464;49.532;2023-03-15T05:40:45;9.40;39.84
67131;HTU21D;54051;53.464;49.532;2023-03-15T05:43:12;11.02;36.32
67131;HTU21D;54051;53.464;49.532;2023-03-15T05:45:38;12.14;34.44
67131;HTU21D;54051;53.464;49.532;2023-03-15T05:48:06;15.22;27.81
67131;HTU21D;54051;53.464;49.532;2023-03-15T05:50:32;17.36;24.34
67131;HTU21D;54051;53.464;49.532;2023-03-15T05:52:58;17.94;23.21
67131;HTU21D;54051;53.464;49.532;2023-03-15T05:55:25;18.15;22.00
67131;HTU21D;54051;53.464;49.532;2023-03-15T05:57:51;15.96;25.43
67131;HTU21D;54051;53.464;49.532;2023-03-15T06:00:17;11.93;33.20
67131;HTU21D;54051;53.464;49.532;2023-03-15T06:02:45;9.83;38.01
67131;HTU21D;54051;53.464;49.532;2023-03-15T06:05:11;9.19;39.67
67131;HTU21D;54051;53.464;49.532;2023-03-15T06:07:37;9.40;39.60
67131;HTU21D;54051;53.464;49.532;2023-03-15T06:10:03;11.78;33.96
67131;HTU21D;54051;53.464;49.532;2023-03-15T06:12:30;13.25;30.96
67131;HTU21D;54051;53.464;49.532;2023-03-15T06:14:56;15.89;26.49
67131;HTU21D;54051;53.464;49.532;2023-03-15T06:17:22;17.99;22.28
67131;HTU21D;54051;53.464;49.532;2023-03-15T06:19:48;17.63;23.16
67131;HTU21D;54051;53.464;49.532;2023-03-15T06:22:14;18.56;21.31
67131;HTU21D;54051;53.464;49.532;2023-03-15T06:24:40;19.54;20.15
67131;HTU21D;54051;53.464;49.532;2023-03-15T06:27:06;18.18;21.74
67131;HTU21D;54051;53.464;49.532;2023-03-15T06:29:32;18.03;22.27
67131;HTU21D;54051;53.464;49.532;2023-03-15T06:31:58;17.84;22.67
67131;HTU21D;54051;53.464;49.532;2023-03-15T06:34:24;18.37;21.96
67131;HTU21D;54051;53.464;49.532;2023-03-15T06:36:50;17.63;23.15
67131;HTU21D;54051;53.464;49.532;2023-03-15T06:39:17;18.06;22.64
67131;HTU21D;54051;53.464;49.532;2023-03-15T06:41:43;18.32;22.14
67131;HTU21D;54051;53.464;49.532;2023-03-15T06:44:09;18.20;22.74
67131;HTU21D;54051;53.464;49.532;2023-03-15T06:46:36;17.54;22.82
67131;HTU21D;54051;53.464;49.532;2023-03-15T06:49:02;17.94;23.03
67131;HTU21D;54051;53.464;49.532;2023-03-15T06:51:28;18.62;22.02
67131;HTU21D;54051;53.464;49.532;2023-03-15T06:53:54;18.34;22.27
67131;HTU21D;54051;53.464;49.532;2023-03-15T06:56:21;18.49;21.35
67131;HTU21D;54051;53.464;49.532;2023-03-15T06:58:47;18.18;21.71
67131;HTU21D;54051;53.464;49.532;2023-03-15T07:01:13;18.10;22.23
67131;HTU21D;54051;53.464;49.532;2023-03-15T07:03:40;18.77;21.16
67131;HTU21D;54051;53.464;49.532;2023-03-15T07:06:07;17.37;23.00
67131;HTU21D;54051;53.464;49.532;2023-03-15T07:08:33;16.44;24.14
67131;HTU21D;54051;53.464;49.532;2023-03-15T07:10:59;16.27;24.91
67131;HTU21D;54051;53.464;49.532;2023-03-15T07:13:25;15.98;25.72
67131;HTU21D;54051;53.464;49.532;2023-03-15T07:15:52;16.37;24.64
67131;HTU21D;54051;53.464;49.532;2023-03-15T07:18:18;16.64;24.29
67131;HTU21D;54051;53.464;49.532;2023-03-15T07:20:44;16.59;24.84
67131;HTU21D;54051;53.464;49.532;2023-03-15T07:23:10;16.64;24.05
67131;HTU21D;54051;53.464;49.532;2023-03-15T07:25:36;16.86;25.31
67131;HTU21D;54051;53.464;49.532;2023-03-15T07:28:02;16.71;23.78
67131;HTU21D;54051;53.464;49.532;2023-03-15T07:30:28;17.09;23.62
67131;HTU21D;54051;53.464;49.532;2023-03-15T07:32:54;18.40;21.82
67131;HTU21D;54051;53.464;49.532;2023-03-15T07:35:20;19.20;20.44
67131;HTU21D;54051;53.464;49.532;2023-03-15T07:37:46;17.06;23.89
67131;HTU21D;54051;53.464;49.532;2023-03-15T07:40:12;17.03;24.15
67131;HTU21D;54051;53.464;49.532;2023-03-15T07:42:41;17.68;22.89
67131;HTU21D;54051;53.464;49.532;2023-03-15T07:45:08;17.68;22.92
67131;HTU21D;54051;53.464;49.532;2023-03-15T07:47:34;18.26;21.38
67131;HTU21D;54051;53.464;49.532;2023-03-15T07:50:01;17.62;23.16
67131;HTU21D;54051;53.464;49.532;2023-03-15T07:52:27;17.58;22.69
67131;HTU21D;54051;53.464;49.532;2023-03-15T07:54:53;17.06;23.56
67131;HTU21D;54051;53.464;49.532;2023-03-15T07:57:19;17.62;23.15
67131;HTU21D;54051;53.464;49.532;2023-03-15T07:59:44;16.31;24.63
67131;HTU21D;54051;53.464;49.532;2023-03-15T08:02:11;15.71;26.46
67131;HTU21D;54051;53.464;49.532;2023-03-15T08:04:38;16.27;26.07
67131;HTU21D;54051;53.464;49.532;2023-03-15T08:07:04;16.48;24.47
67131;HTU21D;54051;53.464;49.532;2023-03-15T08:09:30;15.55;26.04
67131;HTU21D;54051;53.464;49.532;2023-03-15T08:12:00;15.01;27.00
67131;HTU21D;54051;53.464;49.532;2023-03-15T08:14:26;15.09;26.84
67131;HTU21D;54051;53.464;49.532;2023-03-15T08:16:53;16.10;26.02
67131;HTU21D;54051;53.464;49.532;2023-03-15T08:19:18;15.89;26.13
67131;HTU21D;54051;53.464;49.532;2023-03-15T08:21:44;15.63;25.76
67131;HTU21D;54051;53.464;49.532;2023-03-15T08:24:11;15.78;25.91
67131;HTU21D;54051;53.464;49.532;2023-03-15T08:26:37;15.41;26.46
67131;HTU21D;54051;53.464;49.532;2023-03-15T08:29:03;15.38;26.35
67131;HTU21D;54051;53.464;49.532;2023-03-15T08:31:30;15.80;26.34
67131;HTU21D;54051;53.464;49.532;2023-03-15T08:33:56;15.46;26.45
67131;HTU21D;54051;53.464;49.532;2023-03-15T08:36:22;15.42;26.18
67131;HTU21D;54051;53.464;49.532;2023-03-15T08:38:48;15.68;26.61
67131;HTU21D;54051;53.464;49.532;2023-03-15T08:41:14;15.53;27.13
67131;HTU21D;54051;53.464;49.532;2023-03-15T08:43:40;16.28;25.71
67131;HTU21D;54051;53.464;49.532;2023-03-15T08:46:06;16.92;24.82
67131;HTU21D;54051;53.464;49.532;2023-03-15T08:48:32;16.65;25.62
67131;HTU21D;54051;53.464;49.532;2023-03-15T08:51:05;16.08;25.77
67131;HTU21D;54051;53.464;49.532;2023-03-15T08:53:32;14.77;27.94
67131;HTU21D;54051;53.464;49.532;2023-03-15T08:55:59;15.10;26.30
67131;HTU21D;54051;53.464;49.532;2023-03-15T08:58:25;15.03;27.13
67131;HTU21D;54051;53.464;49.532;2023-03-15T09:00:52;14.80;28.30
67131;HTU21D;54051;53.464;49.532;2023-03-15T09:03:19;14.91;28.10
67131;HTU21D;54051;53.464;49.532;2023-03-15T09:05:48;14.45;28.08
67131;HTU21D;54051;53.464;49.532;2023-03-15T09:08:14;12.85;31.18
67131;HTU21D;54051;53.464;49.532;2023-03-15T09:10:43;11.17;36.37
67131;HTU21D;54051;53.464;49.532;2023-03-15T09:13:09;9.97;38.00
67131;HTU21D;54051;53.464;49.532;2023-03-15T09:15:36;9.07;41.66
67131;HTU21D;54051;53.464;49.532;2023-03-15T09:18:02;8.67;41.88
67131;HTU21D;54051;53.464;49.532;2023-03-15T09:20:28;8.36;43.05
67131;HTU21D;54051;53.464;49.532;2023-03-15T09:22:56;8.24;43.92
67131;HTU21D;54051;53.464;49.532;2023-03-15T09:25:24;8.11;43.89
67131;HTU21D;54051;53.464;49.532;2023-03-15T09:27:50;7.81;45.75
67131;HTU21D;54051;53.464;49.532;2023-03-15T09:30:17;7.45;46.60
67131;HTU21D;54051;53.464;49.532;2023-03-15T09:32:44;7.14;47.55
67131;HTU21D;54051;53.464;49.532;2023-03-15T09:35:16;6.89;49.20
67131;HTU21D;54051;53.464;49.532;2023-03-15T09:37:43;6.84;49.08
67131;HTU21D;54051;53.464;49.532;2023-03-15T09:40:23;6.80;50.19
67131;HTU21D;54051;53.464;49.532;2023-03-15T09:45:56;6.79;50.34
67131;HTU21D;54051;53.464;49.532;2023-03-15T09:48:43;6.66;49.73
67131;HTU21D;54051;53.464;49.532;2023-03-15T09:53:55;6.43;50.49
67131;HTU21D;54051;53.464;49.532;2023-03-15T09:58:54;6.55;50.53
67131;HTU21D;54051;53.464;49.532;2023-03-15T10:01:28;6.60;51.16
67131;HTU21D;54051;53.464;49.532;2023-03-15T10:03:55;6.53;48.57
67131;HTU21D;54051;53.464;49.532;2023-03-15T10:06:29;6.51;49.96
67131;HTU21D;54051;53.464;49.532;2023-03-15T10:09:02;6.59;49.93
67131;HTU21D;54051;53.464;49.532;2023-03-15T10:20:07;6.69;51.50
67131;HTU21D;54051;53.464;49.532;2023-03-15T10:25:31;6.37;51.62
67131;HTU21D;54051;53.464;49.532;2023-03-15T10:30:36;6.54;50.38
67131;HTU21D;54051;53.464;49.532;2023-03-15T10:35:46;6.60;49.44
67131;HTU21D;54051;53.464;49.532;2023-03-15T10:38:17;6.58;50.34
67131;HTU21D;54051;53.464;49.532;2023-03-15T10:40:51;6.53;49.53
67131;HTU21D;54051;53.464;49.532;2023-03-15T10:43:26;6.54;51.50
67131;HTU21D;54051;53.464;49.532;2023-03-15T10:46:11;6.61;50.01
67131;HTU21D;54051;53.464;49.532;2023-03-15T10:48:59;6.61;49.89
67131;HTU21D;54051;53.464;49.532;2023-03-15T10:51:41;6.57;51.54
67131;HTU21D;54051;53.464;49.532;2023-03-15T10:54:21;6.53;50.66
67131;HTU21D;54051;53.464;49.532;2023-03-15T10:56:58;6.64;50.95
67131;HTU21D;54051;53.464;49.532;2023-03-15T10:59:27;6.52;50.82
67131;HTU21D;54051;53.464;49.532;2023-03-15T11:02:18;6.34;50.46
67131;HTU21D;54051;53.464;49.532;2023-03-15T11:07:34;6.39;51.00
67131;HTU21D;54051;53.464;49.532;2023-03-15T11:10:04;6.50;50.88
67131;HTU21D;54051;53.464;49.532;2023-03-15T11:12:32;6.49;49.07
67131;HTU21D;54051;53.464;49.532;2023-03-15T11:17:33;6.57;48.42
67131;HTU21D;54051;53.464;49.532;2023-03-15T11:20:05;6.61;49.24
67131;HTU21D;54051;53.464;49.532;2023-03-15T11:22:41;6.57;48.02
67131;HTU21D;54051;53.464;49.532;2023-03-15T11:25:14;6.60;48.09
67131;HTU21D;54051;53.464;49.532;2023-03-15T11:27:41;6.68;46.99
67131;HTU21D;54051;53.464;49.532;2023-03-15T11:30:15;6.75;48.56
67131;HTU21D;54051;53.464;49.532;2023-03-15T11:32:43;6.79;46.47
67131;HTU21D;54051;53.464;49.532;2023-03-15T11:35:13;6.75;46.04
67131;HTU21D;54051;53.464;49.532;2023-03-15T11:40:47;6.81;46.81
67131;HTU21D;54051;53.464;49.532;2023-03-15T11:43:28;6.93;46.98
67131;HTU21D;54051;53.464;49.532;2023-03-15T11:46:04;6.98;47.58
67131;HTU21D;54051;53.464;49.532;2023-03-15T11:48:37;6.96;46.52
67131;HTU21D;54051;53.464;49.532;2023-03-15T11:51:09;6.95;47.14
67131;HTU21D;54051;53.464;49.532;2023-03-15T11:53:42;6.99;47.96
67131;HTU21D;54051;53.464;49.532;2023-03-15T11:56:54;6.98;48.57
67131;HTU21D;54051;53.464;49.532;2023-03-15T11:59:31;7.00;49.27
67131;HTU21D;54051;53.464;49.532;2023-03-15T12:02:07;7.03;48.18
67131;HTU21D;54051;53.464;49.532;2023-03-15T12:04:47;7.03;48.82
67131;HTU21D;54051;53.464;49.532;2023-03-15T12:09:53;7.00;49.06
67131;HTU21D;54051;53.464;49.532;2023-03-15T12:18:01;6.85;50.18
67131;HTU21D;54051;53.464;49.532;2023-03-15T12:20:45;6.90;49.82
67131;HTU21D;54051;53.464;49.532;2023-03-15T12:28:26;6.95;49.45
67131;HTU21D;54051;53.464;49.532;2023-03-15T12:30:56;6.97;49.05
67131;HTU21D;54051;53.464;49.532;2023-03-15T12:33:24;6.91;50.02
67131;HTU21D;54051;53.464;49.532;2023-03-15T12:36:02;6.82;49.52
67131;HTU21D;54051;53.464;49.532;2023-03-15T12:38:38;6.88;48.90
67131;HTU21D;54051;53.464;49.532;2023-03-15T12:49:47;6.82;49.42
67131;HTU21D;54051;53.464;49.532;2023-03-15T12:57:12;6.75;50.37
67131;HTU21D;54051;53.464;49.532;2023-03-15T12:59:59;6.70;49.78
67131;HTU21D;54051;53.464;49.532;2023-03-15T13:02:36;6.69;50.11
67131;HTU21D;54051;53.464;49.532;2023-03-15T13:07:54;6.70;50.55
67131;HTU21D;54051;53.464;49.532;2023-03-15T13:10:52;6.75;50.69
67131;HTU21D;54051;53.464;49.532;2023-03-15T13:19:04;6.72;51.56
67131;HTU21D;54051;53.464;49.532;2023-03-15T13:27:37;6.67;52.56
67131;HTU21D;54051;53.464;49.532;2023-03-15T13:35:41;6.50;53.13
67131;HTU21D;54051;53.464;49.532;2023-03-15T13:40:48;6.46;53.80
67131;HTU21D;54051;53.464;49.532;2023-03-15T13:43:14;6.45;53.35
67131;HTU21D;54051;53.464;49.532;2023-03-15T13:45:47;6.40;53.30
67131;HTU21D;54051;53.464;49.532;2023-03-15T13:48:13;6.20;54.63
67131;HTU21D;54051;53.464;49.532;2023-03-15T13:50:39;6.14;53.29
67131;HTU21D;54051;53.464;49.532;2023-03-15T13:53:06;6.10;53.42
67131;HTU21D;54051;53.464;49.532;2023-03-15T13:55:34;6.10;53.10
67131;HTU21D;54051;53.464;49.532;2023-03-15T13:58:05;6.00;54.84
67131;HTU21D;54051;53.464;49.532;2023-03-15T14:00:33;5.94;54.31
67131;HTU21D;54051;53.464;49.532;2023-03-15T14:03:05;5.87;54.77
67131;HTU21D;54051;53.464;49.532;2023-03-15T14:05:34;5.81;55.24
67131;HTU21D;54051;53.464;49.532;2023-03-15T14:08:25;5.75;55.20
67131;HTU21D;54051;53.464;49.532;2023-03-15T14:10:59;5.78;55.00
67131;HTU21D;54051;53.464;49.532;2023-03-15T14:13:48;5.74;55.37
67131;HTU21D;54051;53.464;49.532;2023-03-15T14:16:28;5.67;56.03
67131;HTU21D;54051;53.464;49.532;2023-03-15T14:21:38;5.55;56.65
67131;HTU21D;54051;53.464;49.532;2023-03-15T14:24:05;5.56;56.32
67131;HTU21D;54051;53.464;49.532;2023-03-15T14:26:31;5.51;56.52
67131;HTU21D;54051;53.464;49.532;2023-03-15T14:29:06;5.52;56.46
67131;HTU21D;54051;53.464;49.532;2023-03-15T14:31:39;5.49;56.92
67131;HTU21D;54051;53.464;49.532;2023-03-15T14:34:35;5.46;57.31
67131;HTU21D;54051;53.464;49.532;2023-03-15T14:37:06;5.49;57.35
67131;HTU21D;54051;53.464;49.532;2023-03-15T14:39:40;5.41;58.19
67131;HTU21D;54051;53.464;49.532;2023-03-15T14:42:10;5.32;58.89
67131;HTU21D;54051;53.464;49.532;2023-03-15T14:44:37;5.17;59.45
67131;HTU21D;54051;53.464;49.532;2023-03-15T14:47:14;5.13;59.79
67131;HTU21D;54051;53.464;49.532;2023-03-15T14:49:45;5.03;60.26
67131;HTU21D;54051;53.464;49.532;2023-03-15T14:52:11;4.96;60.86
67131;HTU21D;54051;53.464;49.532;2023-03-15T14:54:44;4.92;60.78
67131;HTU21D;54051;53.464;49.532;2023-03-15T14:57:11;4.92;61.02
67131;HTU21D;54051;53.464;49.532;2023-03-15T14:59:37;4.93;61.05
67131;HTU21D;54051;53.464;49.532;2023-03-15T15:02:15;4.93;60.87
67131;HTU21D;54051;53.464;49.532;2023-03-15T15:04:42;4.89;61.50
67131;HTU21D;54051;53.464;49.532;2023-03-15T15:07:11;4.86;61.45
67131;HTU21D;54051;53.464;49.532;2023-03-15T15:09:42;4.83;61.54
67131;HTU21D;54051;53.464;49.532;2023-03-15T15:12:13;4.82;61.76
67131;HTU21D;54051;53.464;49.532;2023-03-15T15:14:39;4.79;62.38
67131;HTU21D;54051;53.464;49.532;2023-03-15T15:17:09;4.80;62.21
67131;HTU21D;54051;53.464;49.532;2023-03-15T15:19:36;4.81;63.00
67131;HTU21D;54051;53.464;49.532;2023-03-15T15:22:05;4.66;63.65
67131;HTU21D;54051;53.464;49.532;2023-03-15T15:24:31;4.64;63.66
67131;HTU21D;54051;53.464;49.532;2023-03-15T15:26:58;4.69;63.80
67131;HTU21D;54051;53.464;49.532;2023-03-15T15:29:24;4.60;64.39
67131;HTU21D;54051;53.464;49.532;2023-03-15T15:31:53;4.65;64.30
67131;HTU21D;54051;53.464;49.532;2023-03-15T15:34:19;4.68;64.20
67131;HTU21D;54051;53.464;49.532;2023-03-15T15:36:46;4.76;64.05
67131;HTU21D;54051;53.464;49.532;2023-03-15T15:39:21;4.67;64.21
67131;HTU21D;54051;53.464;49.532;2023-03-15T15:41:48;4.69;64.14
67131;HTU21D;54051;53.464;49.532;2023-03-15T15:44:17;4.71;64.39
67131;HTU21D;54051;53.464;49.532;2023-03-15T15:46:44;4.65;64.21
67131;HTU21D;54051;53.464;49.532;2023-03-15T15:49:10;4.71;64.72
67131;HTU21D;54051;53.464;49.532;2023-03-15T15:51:46;4.66;63.89
67131;HTU21D;54051;53.464;49.532;2023-03-15T15:54:26;4.71;63.79
67131;HTU21D;54051;53.464;49.532;2023-03-15T15:56:57;4.64;64.56
67131;HTU21D;54051;53.464;49.532;2023-03-15T15:59:24;4.61;64.55
67131;HTU21D;54051;53.464;49.532;2023-03-15T16:01:50;4.57;64.84
67131;HTU21D;54051;53.464;49.532;2023-03-15T16:04:17;4.54;64.72
67131;HTU21D;54051;53.464;49.532;2023-03-15T16:06:49;4.52;64.47
67131;HTU21D;54051;53.464;49.532;2023-03-15T16:09:17;4.50;64.51
67131;HTU21D;54051;53.464;49.532;2023-03-15T16:11:47;4.51;64.30
67131;HTU21D;54051;53.464;49.532;2023-03-15T16:14:14;4.52;64.26
67131;HTU21D;54051;53.464;49.532;2023-03-15T16:16:41;4.53;63.80
67131;HTU21D;54051;53.464;49.532;2023-03-15T16:19:08;4.58;63.54
67131;HTU21D;54051;53.464;49.532;2023-03-15T16:21:44;4.54;63.76
67131;HTU21D;54051;53.464;49.532;2023-03-15T16:24:16;4.47;64.30
67131;HTU21D;54051;53.464;49.532;2023-03-15T16:26:44;4.38;65.31
67131;HTU21D;54051;53.464;49.532;2023-03-15T16:29:20;4.32;65.51
67131;HTU21D;54051;53.464;49.532;2023-03-15T16:35:55;4.36;66.04
67131;HTU21D;54051;53.464;49.532;2023-03-15T16:41:47;4.29;65.97
67131;HTU21D;54051;53.464;49.532;2023-03-15T16:48:16;4.41;63.93
67131;HTU21D;54051;53.464;49.532;2023-03-15T16:50:43;4.47;64.79
67131;HTU21D;54051;53.464;49.532;2023-03-15T16:53:11;4.38;64.97
67131;HTU21D;54051;53.464;49.532;2023-03-15T16:55:38;4.31;65.31
67131;HTU21D;54051;53.464;49.532;2023-03-15T16:58:16;4.19;65.68
67131;HTU21D;54051;53.464;49.532;2023-03-15T17:00:44;4.21;65.95
67131;HTU21D;54051;53.464;49.532;2023-03-15T17:03:13;4.26;65.64
67131;HTU21D;54051;53.464;49.532;2023-03-15T17:05:40;4.16;66.01